createdAt,value
2022-12-25T00:01:25.413Z,48.78
2022-12-25T00:03:53.022Z,54.53
2022-12-25T00:06:20.251Z,50.60
2022-12-25T00:08:47.444Z,49.25
2022-12-25T00:11:17.632Z,52.17
2022-12-25T00:16:25.724Z,41.78
2022-12-25T00:18:53.409Z,50.80
2022-12-25T00:21:21.551Z,53.67
2022-12-25T00:23:53.199Z,55.13
2022-12-25T00:26:20.368Z,55.15
2022-12-25T00:28:47.428Z,44.60
2022-12-25T00:31:18.727Z,49.15
2022-12-25T00:33:48.338Z,51.03
2022-12-25T00:36:18.102Z,45.55
2022-12-25T00:38:45.805Z,44.38
2022-12-25T00:41:15.685Z,53.22
2022-12-25T00:43:43.495Z,46.15
2022-12-25T00:46:13.799Z,44.10
2022-12-25T00:48:41.473Z,54.83
2022-12-25T00:51:11.875Z,50.85
2022-12-25T00:53:39.106Z,52.45
2022-12-25T00:56:07.679Z,47.78
2022-12-25T00:58:36.083Z,43.40
2022-12-25T01:01:06.968Z,47.20
2022-12-25T01:03:34.042Z,42.75
2022-12-25T01:06:04.533Z,45.60
2022-12-25T01:08:34.521Z,41.03
2022-12-25T01:11:07.570Z,46.58
2022-12-25T01:13:38.087Z,43.72
2022-12-25T01:16:12.470Z,39.80
2022-12-25T01:18:39.511Z,39.13
2022-12-25T01:21:17.893Z,44.22
2022-12-25T01:23:45.279Z,56.25
2022-12-25T01:26:13.954Z,44.22
2022-12-25T01:28:41.431Z,53.45
2022-12-25T01:31:14.125Z,46.17
2022-12-25T01:33:42.851Z,48.08
2022-12-25T01:36:21.896Z,53.67
2022-12-25T01:38:50.403Z,48.97
2022-12-25T01:41:20.098Z,48.13
2022-12-25T01:44:00.757Z,48.78
2022-12-25T01:46:28.269Z,47.63
2022-12-25T01:48:59.311Z,46.10
2022-12-25T01:51:33.315Z,45.88
2022-12-25T01:54:05.213Z,52.63
2022-12-25T01:56:34.136Z,48.30
2022-12-25T01:59:03.580Z,51.03
2022-12-25T02:01:30.975Z,50.40
2022-12-25T02:04:07.036Z,43.03
2022-12-25T02:06:35.400Z,52.50
2022-12-25T02:09:03.277Z,48.20
2022-12-25T02:11:48.702Z,53.83
2022-12-25T02:14:15.803Z,45.45
2022-12-25T02:16:58.347Z,48.15
2022-12-25T02:20:12.490Z,50.22
2022-12-25T02:22:59.967Z,51.10
2022-12-25T02:25:57.977Z,55.53
2022-12-25T02:29:10.063Z,52.35
2022-12-25T02:31:43.313Z,49.17
2022-12-25T02:34:54.419Z,41.17
2022-12-25T02:37:27.492Z,50.42
2022-12-25T02:40:22.297Z,52.22
2022-12-25T02:43:25.389Z,49.45
2022-12-25T02:46:13.924Z,43.20
2022-12-25T02:49:07.595Z,44.67
2022-12-25T02:51:58.117Z,45.67
2022-12-25T02:54:56.696Z,50.10
2022-12-25T02:57:49.805Z,56.15
2022-12-25T03:00:35.902Z,42.22
2022-12-25T03:03:24.840Z,50.10
2022-12-25T03:06:14.956Z,38.03
2022-12-25T03:08:45.215Z,41.33
2022-12-25T03:11:31.475Z,58.63
2022-12-25T03:14:23.401Z,60.67
2022-12-25T03:16:54.765Z,41.63
2022-12-25T03:19:44.509Z,63.00
2022-12-25T03:22:35.498Z,49.30
2022-12-25T03:25:21.942Z,55.33
2022-12-25T03:27:53.454Z,51.47
2022-12-25T03:30:40.717Z,43.47
2022-12-25T03:33:43.991Z,51.88
2022-12-25T03:36:40.178Z,49.20
2022-12-25T03:39:37.477Z,58.42
2022-12-25T03:42:25.572Z,56.85
2022-12-25T03:45:30.657Z,51.88
2022-12-25T03:48:10.323Z,52.72
2022-12-25T03:51:22.733Z,56.28
2022-12-25T03:54:15.689Z,56.97
2022-12-25T03:57:02.730Z,49.10
2022-12-25T03:59:48.504Z,47.38
2022-12-25T04:02:34.196Z,40.90
2022-12-25T04:05:19.908Z,49.47
2022-12-25T04:08:05.388Z,51.88
2022-12-25T04:10:51.068Z,50.08
2022-12-25T04:13:36.756Z,49.63
2022-12-25T04:16:22.537Z,54.55
2022-12-25T04:19:08.022Z,44.05
2022-12-25T04:21:53.821Z,66.50
2022-12-25T04:24:39.258Z,61.50
2022-12-25T04:27:24.946Z,67.22
2022-12-25T04:30:10.866Z,54.67
2022-12-25T04:32:56.436Z,58.63
2022-12-25T04:35:42.202Z,49.42
2022-12-25T04:38:09.309Z,67.68
2022-12-25T04:40:36.367Z,59.83
2022-12-25T04:43:03.498Z,63.90
2022-12-25T04:45:30.586Z,56.45
2022-12-25T04:48:00.531Z,57.85
2022-12-25T04:50:27.802Z,42.47
2022-12-25T04:52:54.862Z,71.47
2022-12-25T04:55:21.972Z,56.53
2022-12-25T04:57:49.108Z,52.80
2022-12-25T05:00:16.518Z,58.75
2022-12-25T05:02:43.775Z,48.33
2022-12-25T05:05:10.918Z,58.00
2022-12-25T05:07:38.048Z,42.03
2022-12-25T05:10:05.375Z,54.92
2022-12-25T05:12:32.434Z,56.50
2022-12-25T05:14:59.575Z,59.28
2022-12-25T05:17:26.840Z,49.22
2022-12-25T05:19:53.907Z,40.65
2022-12-25T05:22:20.976Z,45.28
2022-12-25T05:24:48.023Z,62.65
2022-12-25T05:27:15.965Z,46.08
2022-12-25T05:29:43.102Z,39.90
2022-12-25T05:32:10.318Z,61.70
2022-12-25T05:34:37.366Z,42.13
2022-12-25T05:37:04.511Z,41.53
2022-12-25T05:39:31.781Z,38.63
2022-12-25T05:41:58.862Z,56.80
2022-12-25T05:44:25.943Z,45.72
2022-12-25T05:46:53.126Z,39.33
2022-12-25T05:49:20.247Z,50.65
2022-12-25T05:51:47.417Z,43.10
2022-12-25T05:54:14.443Z,42.10
2022-12-25T05:56:41.530Z,46.58
2022-12-25T05:59:08.666Z,42.03
2022-12-25T06:01:35.939Z,37.00
2022-12-25T06:04:08.424Z,37.33
2022-12-25T06:06:39.185Z,53.13
2022-12-25T06:09:06.329Z,38.47
2022-12-25T06:11:33.491Z,41.50
2022-12-25T06:14:00.522Z,48.33
2022-12-25T06:16:30.487Z,46.63
2022-12-25T06:19:01.225Z,36.40
2022-12-25T06:21:28.360Z,39.53
2022-12-25T06:23:55.463Z,36.88
2022-12-25T06:26:22.569Z,42.55
2022-12-25T06:28:49.628Z,36.65
2022-12-25T06:31:20.408Z,39.70
2022-12-25T06:33:48.013Z,37.38
2022-12-25T06:36:18.387Z,31.48
2022-12-25T06:38:46.230Z,34.85
2022-12-25T06:41:18.362Z,36.72
2022-12-25T06:43:53.399Z,30.70
2022-12-25T06:46:21.220Z,31.77
2022-12-25T06:48:49.930Z,41.60
2022-12-25T06:51:22.560Z,31.23
2022-12-25T06:53:50.779Z,32.90
2022-12-25T06:56:20.038Z,34.60
2022-12-25T06:58:55.284Z,36.65
2022-12-25T07:01:27.055Z,26.88
2022-12-25T07:04:00.603Z,28.02
2022-12-25T07:06:27.763Z,29.65
2022-12-25T07:08:54.845Z,29.30
2022-12-25T07:11:22.478Z,30.73
2022-12-25T07:13:49.649Z,22.75
2022-12-25T07:16:17.083Z,45.03
2022-12-25T07:18:44.204Z,34.13
2022-12-25T07:21:16.871Z,34.22
2022-12-25T07:23:44.819Z,38.95
2022-12-25T07:26:13.130Z,37.50
2022-12-25T07:28:40.583Z,27.67
2022-12-25T07:31:12.996Z,31.65
2022-12-25T07:33:40.145Z,41.10
2022-12-25T07:36:08.156Z,29.52
2022-12-25T07:38:40.309Z,26.95
2022-12-25T07:41:13.181Z,43.75
2022-12-25T07:43:40.472Z,34.83
2022-12-25T07:46:08.049Z,37.03
2022-12-25T07:48:36.726Z,21.95
2022-12-25T07:51:06.637Z,27.60
2022-12-25T07:53:34.491Z,38.45
2022-12-25T07:56:03.987Z,27.88
2022-12-25T07:58:31.970Z,31.60
2022-12-25T08:01:06.966Z,31.70
2022-12-25T08:03:35.423Z,28.52
2022-12-25T08:06:08.183Z,30.08
2022-12-25T08:08:36.330Z,36.15
2022-12-25T08:11:04.080Z,41.95
2022-12-25T08:13:32.348Z,42.75
2022-12-25T08:16:01.492Z,35.92
2022-12-25T08:18:30.658Z,47.10
2022-12-25T08:21:03.540Z,29.95
2022-12-25T08:23:30.718Z,38.90
2022-12-25T08:26:05.157Z,38.90
2022-12-25T08:28:34.361Z,33.75
2022-12-25T08:31:25.093Z,44.80
2022-12-25T08:33:54.595Z,32.20
2022-12-25T08:36:21.664Z,30.98
2022-12-25T08:38:49.405Z,31.73
2022-12-25T08:41:17.545Z,23.70
2022-12-25T08:43:45.125Z,71.53
2022-12-25T08:46:12.411Z,35.80
2022-12-25T08:48:44.044Z,30.25
2022-12-25T08:51:16.618Z,29.33
2022-12-25T08:53:46.322Z,23.80
2022-12-25T08:56:14.194Z,42.78
2022-12-25T08:58:41.868Z,26.33
2022-12-25T09:01:09.609Z,26.33
2022-12-25T09:03:37.155Z,28.90
2022-12-25T09:06:07.694Z,44.85
2022-12-25T09:08:36.050Z,24.85
2022-12-25T09:11:04.906Z,25.48
2022-12-25T09:13:32.508Z,24.92
2022-12-25T09:16:00.035Z,22.42
2022-12-25T09:18:27.149Z,26.58
2022-12-25T09:21:02.150Z,28.38
2022-12-25T09:23:30.191Z,23.05
2022-12-25T09:26:02.296Z,24.27
2022-12-25T09:28:29.790Z,30.83
2022-12-25T09:30:57.153Z,29.02
2022-12-25T09:33:25.009Z,24.60
2022-12-25T09:35:57.098Z,22.88
2022-12-25T09:38:25.168Z,32.25
2022-12-25T09:41:05.387Z,28.25
2022-12-25T09:43:39.485Z,24.70
2022-12-25T09:46:11.271Z,27.95
2022-12-25T09:48:46.156Z,33.97
2022-12-25T09:51:17.614Z,29.65
2022-12-25T09:53:58.815Z,36.08
2022-12-25T09:56:26.680Z,30.23
2022-12-25T09:58:54.480Z,26.23
2022-12-25T10:01:46.215Z,22.98
2022-12-25T10:04:13.293Z,25.30
2022-12-25T10:06:43.274Z,20.38
2022-12-25T10:09:20.652Z,20.35
2022-12-25T10:12:09.214Z,19.58
2022-12-25T10:15:13.360Z,21.40
2022-12-25T10:17:58.174Z,17.98
2022-12-25T10:20:37.090Z,14.02
2022-12-25T10:23:12.372Z,14.63
2022-12-25T10:25:40.845Z,11.65
2022-12-25T10:28:38.941Z,12.40
2022-12-25T10:31:16.673Z,13.82
2022-12-25T10:33:44.322Z,12.10
2022-12-25T10:36:11.598Z,13.77
2022-12-25T10:38:38.704Z,13.52
2022-12-25T10:41:42.858Z,13.13
2022-12-25T10:44:15.968Z,13.18
2022-12-25T10:46:49.398Z,16.00
2022-12-25T10:49:19.779Z,18.15
2022-12-25T10:54:21.713Z,17.27
2022-12-25T10:57:01.163Z,19.75
2022-12-25T10:59:35.678Z,18.83
2022-12-25T11:02:23.902Z,14.90
2022-12-25T11:04:58.216Z,14.63
2022-12-25T11:07:26.744Z,17.17
2022-12-25T11:10:05.070Z,15.05
2022-12-25T11:12:42.203Z,16.52
2022-12-25T11:15:32.960Z,18.02
2022-12-25T11:18:00.118Z,13.98
2022-12-25T11:20:27.505Z,14.77
2022-12-25T11:22:55.046Z,14.15
2022-12-25T11:25:24.903Z,14.57
2022-12-25T11:28:00.917Z,13.55
2022-12-25T11:30:31.195Z,14.23
2022-12-25T11:35:50.637Z,15.27
2022-12-25T11:38:17.712Z,15.15
2022-12-25T11:40:46.409Z,16.50
2022-12-25T11:43:23.583Z,13.90
2022-12-25T11:46:14.328Z,17.08
2022-12-25T11:48:47.500Z,17.30
2022-12-25T11:51:16.511Z,16.77
2022-12-25T11:53:59.388Z,14.80
2022-12-25T11:56:29.479Z,16.23
2022-12-25T11:59:18.490Z,15.27
2022-12-25T12:01:57.380Z,16.65
2022-12-25T12:04:32.671Z,18.10
2022-12-25T12:07:12.407Z,17.50
2022-12-25T12:10:03.225Z,18.70
2022-12-25T12:12:35.108Z,15.90
2022-12-25T12:15:18.608Z,16.23
2022-12-25T12:17:45.761Z,17.08
2022-12-25T12:20:29.789Z,14.20
2022-12-25T12:22:58.102Z,13.60
2022-12-25T12:25:25.798Z,14.18
2022-12-25T12:28:05.196Z,14.98
2022-12-25T12:30:35.801Z,14.40
2022-12-25T12:33:06.526Z,15.85
2022-12-25T12:35:38.128Z,15.63
2022-12-25T12:38:15.827Z,15.30
2022-12-25T12:40:52.621Z,16.50
2022-12-25T12:43:47.509Z,16.88
2022-12-25T12:46:17.296Z,15.23
2022-12-25T12:48:48.008Z,15.70
2022-12-25T12:51:36.077Z,15.85
2022-12-25T12:54:06.285Z,16.50
2022-12-25T12:59:00.348Z,17.45
2022-12-25T13:01:27.592Z,18.42
2022-12-25T13:04:01.185Z,17.80
2022-12-25T13:06:54.528Z,19.17
2022-12-25T13:09:55.620Z,17.45
2022-12-25T13:12:23.824Z,20.55
2022-12-25T13:14:51.304Z,18.65
2022-12-25T13:17:25.032Z,21.10
2022-12-25T13:19:57.309Z,21.45
2022-12-25T13:22:36.393Z,23.50
2022-12-25T13:25:09.026Z,24.23
2022-12-25T13:27:36.288Z,21.75
2022-12-25T13:30:19.300Z,23.70
2022-12-25T13:32:46.677Z,22.27
2022-12-25T13:35:15.827Z,22.95
2022-12-25T13:37:44.252Z,23.25
2022-12-25T13:40:29.585Z,23.38
2022-12-25T13:43:01.382Z,22.38
2022-12-25T13:45:31.057Z,23.42
2022-12-25T13:47:58.850Z,22.48
2022-12-25T13:50:27.209Z,21.92
2022-12-25T13:52:56.898Z,23.35
2022-12-25T13:55:23.939Z,21.52
2022-12-25T13:57:54.773Z,20.95
2022-12-25T14:00:46.050Z,21.63
2022-12-25T14:03:23.346Z,18.38
2022-12-25T14:06:02.396Z,19.80
2022-12-25T14:08:34.822Z,21.77
2022-12-25T14:11:04.861Z,20.50
2022-12-25T14:13:35.956Z,19.77
2022-12-25T14:16:03.660Z,19.65
2022-12-25T14:18:31.349Z,18.65
2022-12-25T14:21:01.356Z,21.40
2022-12-25T14:23:41.651Z,19.67
2022-12-25T14:26:20.282Z,19.38
2022-12-25T14:28:58.341Z,19.30
2022-12-25T14:31:29.099Z,18.48
2022-12-25T14:33:56.303Z,19.83
2022-12-25T14:36:23.510Z,19.35
2022-12-25T14:39:03.041Z,19.10
2022-12-25T14:41:42.114Z,18.30
2022-12-25T14:44:33.798Z,18.77
2022-12-25T14:47:18.992Z,19.77
2022-12-25T14:49:47.144Z,18.55
2022-12-25T14:52:19.839Z,19.95
2022-12-25T14:55:00.062Z,21.10
2022-12-25T14:57:31.283Z,19.48
2022-12-25T15:00:01.520Z,20.50
2022-12-25T15:02:40.125Z,19.88
2022-12-25T15:05:27.344Z,22.42
2022-12-25T15:08:12.386Z,20.92
2022-12-25T15:13:29.650Z,23.25
2022-12-25T15:16:17.097Z,25.92
2022-12-25T15:18:46.869Z,26.48
2022-12-25T15:21:21.951Z,25.83
2022-12-25T15:23:49.126Z,25.83
2022-12-25T15:26:16.392Z,27.40
2022-12-25T15:28:43.472Z,27.92
2022-12-25T15:31:33.930Z,28.23
2022-12-25T15:34:05.885Z,29.15
2022-12-25T15:36:34.367Z,30.27
2022-12-25T15:39:01.706Z,28.30
2022-12-25T15:41:55.321Z,29.20
2022-12-25T15:44:23.669Z,31.40
2022-12-25T15:46:51.346Z,30.50
2022-12-25T15:49:18.894Z,29.77
2022-12-25T15:51:46.779Z,31.02
2022-12-25T15:54:13.901Z,31.13
2022-12-25T15:56:45.233Z,33.42
2022-12-25T15:59:13.789Z,32.25
2022-12-25T16:01:48.031Z,28.90
2022-12-25T16:04:15.194Z,27.70
2022-12-25T16:06:42.501Z,31.10
2022-12-25T16:09:13.736Z,25.33
2022-12-25T16:11:41.226Z,27.77
2022-12-25T16:14:08.822Z,27.13
2022-12-25T16:16:36.710Z,27.30
2022-12-25T16:19:04.377Z,26.52
2022-12-25T16:21:43.888Z,25.60
2022-12-25T16:24:11.483Z,27.20
2022-12-25T16:26:38.582Z,25.98
2022-12-25T16:29:07.426Z,28.08
2022-12-25T16:31:35.518Z,27.10
2022-12-25T16:34:03.721Z,26.17
2022-12-25T16:36:31.039Z,27.50
2022-12-25T16:38:58.238Z,26.73
2022-12-25T16:41:25.278Z,26.63
2022-12-25T16:43:52.405Z,26.65
2022-12-25T16:46:22.491Z,26.95
2022-12-25T16:48:49.814Z,26.83
2022-12-25T16:51:21.579Z,24.92
2022-12-25T16:53:48.703Z,27.33
2022-12-25T16:56:18.425Z,26.17
2022-12-25T16:58:47.141Z,25.60
2022-12-25T17:01:17.249Z,26.05
2022-12-25T17:03:44.689Z,27.10
2022-12-25T17:06:15.516Z,28.92
2022-12-25T17:08:43.255Z,25.15
2022-12-25T17:11:11.121Z,26.75
2022-12-25T17:13:38.332Z,27.83
2022-12-25T17:16:17.417Z,27.80
2022-12-25T17:18:45.372Z,27.25
2022-12-25T17:21:14.791Z,28.40
2022-12-25T17:23:42.125Z,31.93
2022-12-25T17:26:09.268Z,30.80
2022-12-25T17:28:36.707Z,29.55
2022-12-25T17:31:05.793Z,30.02
2022-12-25T17:33:36.062Z,31.90
2022-12-25T17:38:32.988Z,31.65
2022-12-25T17:41:01.842Z,32.33
2022-12-25T17:43:29.232Z,33.38
2022-12-25T17:45:56.441Z,32.72
2022-12-25T17:48:23.532Z,33.28
2022-12-25T17:50:50.595Z,33.25
2022-12-25T17:53:17.767Z,35.38
2022-12-25T17:55:44.859Z,34.92
2022-12-25T17:58:12.009Z,36.42
2022-12-25T18:00:39.274Z,36.00
2022-12-25T18:03:11.675Z,35.35
2022-12-25T18:05:39.106Z,34.80
2022-12-25T18:08:06.221Z,36.83
2022-12-25T18:10:40.911Z,36.28
2022-12-25T18:13:08.758Z,34.38
2022-12-25T18:15:42.101Z,35.90
2022-12-25T18:18:10.112Z,36.47
2022-12-25T18:20:40.129Z,38.08
2022-12-25T18:23:08.605Z,39.97
2022-12-25T18:25:41.393Z,41.25
2022-12-25T18:28:09.363Z,39.58
2022-12-25T18:30:41.281Z,41.78
2022-12-25T18:33:09.014Z,42.17
2022-12-25T18:35:39.797Z,39.67
2022-12-25T18:38:09.392Z,38.35
2022-12-25T18:40:44.648Z,41.75
2022-12-25T18:43:12.953Z,43.28
2022-12-25T18:45:40.221Z,40.00
2022-12-25T18:48:08.637Z,42.20
2022-12-25T18:50:38.387Z,43.60
2022-12-25T18:53:06.526Z,42.58
2022-12-25T18:55:33.616Z,44.50
2022-12-25T18:58:00.820Z,44.38
2022-12-25T19:00:28.265Z,42.60
2022-12-25T19:02:59.375Z,41.35
2022-12-25T19:05:26.788Z,39.90
2022-12-25T19:07:54.046Z,43.90
2022-12-25T19:10:21.198Z,44.15
2022-12-25T19:12:48.426Z,39.08
2022-12-25T19:15:15.683Z,43.60
2022-12-25T19:17:42.773Z,42.55
2022-12-25T19:20:10.418Z,42.67
2022-12-25T19:22:37.570Z,43.20
2022-12-25T19:25:05.139Z,42.95
2022-12-25T19:27:32.208Z,44.05
2022-12-25T19:29:59.349Z,48.30
2022-12-25T19:32:26.416Z,41.90
2022-12-25T19:34:53.493Z,45.47
2022-12-25T19:37:20.632Z,50.63
2022-12-25T19:39:47.883Z,47.97
2022-12-25T19:42:16.720Z,41.72
2022-12-25T19:44:43.955Z,46.67
2022-12-25T19:47:11.365Z,41.28
2022-12-25T19:49:40.679Z,43.47
2022-12-25T19:52:08.398Z,41.40
2022-12-25T19:54:35.566Z,42.25
2022-12-25T19:57:02.630Z,44.50
2022-12-25T19:59:29.756Z,39.13
2022-12-25T20:01:56.945Z,42.92
2022-12-25T20:04:24.163Z,40.60
2022-12-25T20:06:51.279Z,42.30
2022-12-25T20:09:21.433Z,40.25
2022-12-25T20:11:49.332Z,40.28
2022-12-25T20:14:17.752Z,38.05
2022-12-25T20:16:45.249Z,38.60
2022-12-25T20:19:13.418Z,40.90
2022-12-25T20:21:40.898Z,41.80
2022-12-25T20:24:10.355Z,38.92
2022-12-25T20:26:39.079Z,40.73
2022-12-25T20:29:06.818Z,42.38
2022-12-25T20:31:35.113Z,40.13
2022-12-25T20:34:07.805Z,37.70
2022-12-25T20:36:37.618Z,37.75
2022-12-25T20:39:10.001Z,39.25
2022-12-25T20:41:38.306Z,38.47
2022-12-25T20:44:06.829Z,36.47
2022-12-25T20:46:34.168Z,40.67
2022-12-25T20:49:02.215Z,40.83
2022-12-25T20:51:29.323Z,40.40
2022-12-25T20:53:57.928Z,40.95
2022-12-25T20:56:26.765Z,44.22
2022-12-25T20:58:55.868Z,38.67
2022-12-25T21:01:23.353Z,36.40
2022-12-25T21:03:50.684Z,40.78
2022-12-25T21:06:17.837Z,39.25
2022-12-25T21:08:45.054Z,39.40
2022-12-25T21:11:13.287Z,43.95
2022-12-25T21:13:42.742Z,43.83
2022-12-25T21:16:13.510Z,38.97
2022-12-25T21:18:40.927Z,42.05
2022-12-25T21:21:08.673Z,40.83
2022-12-25T21:23:38.112Z,42.80
2022-12-25T21:26:13.083Z,37.40
2022-12-25T21:28:40.447Z,36.60
2022-12-25T21:31:08.676Z,38.28
2022-12-25T21:33:54.670Z,36.25
2022-12-25T21:36:34.439Z,35.75
2022-12-25T21:39:05.937Z,38.00
2022-12-25T21:41:34.839Z,38.17
2022-12-25T21:44:02.919Z,39.47
2022-12-25T21:46:30.375Z,33.15
2022-12-25T21:48:58.666Z,33.45
2022-12-25T21:51:50.117Z,35.97
2022-12-25T21:54:18.272Z,35.05
2022-12-25T21:56:47.405Z,33.90
2022-12-25T21:59:21.273Z,35.25
2022-12-25T22:01:49.988Z,29.95
2022-12-25T22:04:18.845Z,33.28
2022-12-25T22:07:04.955Z,33.38
2022-12-25T22:09:32.323Z,34.22
2022-12-25T22:12:18.138Z,35.65
2022-12-25T22:14:56.228Z,31.02
2022-12-25T22:17:51.998Z,33.67
2022-12-25T22:20:34.898Z,32.92
2022-12-25T22:23:02.567Z,36.70
2022-12-25T22:25:30.001Z,37.17
2022-12-25T22:27:57.821Z,32.35
2022-12-25T22:30:27.699Z,33.15
2022-12-25T22:32:55.460Z,32.10
2022-12-25T22:35:23.128Z,31.90
2022-12-25T22:37:50.745Z,35.45
2022-12-25T22:40:19.738Z,34.22
2022-12-25T22:42:47.484Z,37.03
2022-12-25T22:45:15.099Z,37.20
2022-12-25T22:47:42.240Z,39.35
2022-12-25T22:50:10.943Z,38.70
2022-12-25T22:52:38.765Z,39.67
2022-12-25T22:55:07.921Z,40.72
2022-12-25T22:57:35.739Z,36.83
2022-12-25T23:00:03.788Z,39.92
2022-12-25T23:02:31.162Z,38.95
2022-12-25T23:04:58.386Z,39.25
2022-12-25T23:07:25.512Z,38.85
2022-12-25T23:09:52.513Z,38.85
2022-12-25T23:12:38.230Z,41.30
2022-12-25T23:15:05.881Z,39.08
2022-12-25T23:17:51.254Z,40.97
2022-12-25T23:20:37.083Z,42.67
2022-12-25T23:23:22.567Z,39.92
2022-12-25T23:26:07.747Z,44.15
2022-12-25T23:28:55.720Z,41.05
2022-12-25T23:31:32.300Z,43.15
2022-12-25T23:34:00.334Z,43.90
2022-12-25T23:36:27.719Z,49.42
2022-12-25T23:38:54.831Z,46.45
2022-12-25T23:41:22.485Z,43.60
2022-12-25T23:43:49.723Z,46.50
2022-12-25T23:46:17.127Z,46.35
2022-12-25T23:48:44.304Z,49.33
2022-12-25T23:51:11.463Z,43.25
2022-12-25T23:53:38.560Z,45.92
2022-12-25T23:56:05.896Z,44.50
2022-12-25T23:58:33.850Z,42.97
